Time;durP1;ratioP1;P1;durP2;ratioP2;P2;SDS_P1;SDS_P2;PMS_P1;PMS_P2;Temp;Humidity;BMP_temperature;BMP_pressure;BME280_temperature;BME280_humidity;BME280_pressure;Samples;Min_cycle;Max_cycle;Signal;HPM_P1;HPM_P2
2021/01/21 00:00:33;;;;;;;6.45;4.72;;;5.50;3.60;;;;;;4860648;29;20053;-72
2021/01/21 00:03:02;;;;;;;9.07;4.55;;;5.50;3.50;;;;;;4855565;29;20144;-72
2021/01/21 00:05:31;;;;;;;8.68;5.05;;;5.50;2.90;;;;;;4858177;29;20104;-72
2021/01/21 00:08:00;;;;;;;9.60;4.88;;;5.50;3.50;;;;;;4861130;29;20045;-72
2021/01/21 00:10:28;;;;;;;9.00;5.28;;;5.50;3.40;;;;;;4860264;29;20061;-72
2021/01/21 00:12:56;;;;;;;8.05;5.05;;;5.50;3.40;;;;;;4861375;29;20073;-72
2021/01/21 00:15:34;;;;;;;6.13;4.60;;;5.50;2.90;;;;;;4883850;29;20064;-72
2021/01/21 00:18:07;;;;;;;8.82;5.15;;;5.60;2.90;;;;;;4865104;29;20176;-72
2021/01/21 00:20:36;;;;;;;7.43;5.07;;;5.50;3.20;;;;;;4864162;29;20438;-72
2021/01/21 00:23:03;;;;;;;11.02;5.63;;;5.50;3.80;;;;;;4855093;29;20069;-72
2021/01/21 00:25:32;;;;;;;9.40;5.38;;;5.50;3.20;;;;;;4862116;29;20071;-72
2021/01/21 00:28:01;;;;;;;11.85;5.55;;;5.50;3.50;;;;;;4863595;29;20141;-71
2021/01/21 00:30:29;;;;;;;9.55;4.72;;;5.50;2.80;;;;;;4867647;29;20504;-72
2021/01/21 00:33:00;;;;;;;7.80;5.30;;;5.50;3.70;;;;;;4854113;29;20106;-72
2021/01/21 00:35:27;;;;;;;10.98;4.85;;;5.50;3.70;;;;;;4861213;29;20053;-72
2021/01/21 00:37:55;;;;;;;9.63;5.25;;;5.40;3.40;;;;;;4862365;29;20051;-72
2021/01/21 00:40:21;;;;;;;10.13;5.65;;;5.40;4.20;;;;;;4860070;29;20061;-73
2021/01/21 00:42:48;;;;;;;11.35;5.80;;;5.40;3.80;;;;;;4857132;29;20057;-72
2021/01/21 00:45:15;;;;;;;8.32;5.88;;;5.30;4.70;;;;;;4854593;29;20509;-72
2021/01/21 00:47:42;;;;;;;9.98;5.95;;;5.20;4.40;;;;;;4856440;29;20462;-72
2021/01/21 00:50:10;;;;;;;8.88;5.95;;;5.30;4.30;;;;;;4859944;29;20117;-72
2021/01/21 00:52:37;;;;;;;10.00;6.38;;;5.40;4.10;;;;;;4855054;29;20052;-71
2021/01/21 00:55:06;;;;;;;8.15;5.32;;;5.40;4.10;;;;;;4858716;29;20063;-72
2021/01/21 00:57:32;;;;;;;7.38;5.40;;;5.40;3.80;;;;;;4857780;29;20058;-73
2021/01/21 00:59:59;;;;;;;7.47;4.20;;;5.50;3.60;;;;;;4863062;29;20053;-72
2021/01/21 01:02:26;;;;;;;10.80;5.50;;;5.50;2.90;;;;;;4852233;29;20069;-72
2021/01/21 01:04:53;;;;;;;9.00;5.30;;;5.50;3.20;;;;;;4857293;29;20077;-72
2021/01/21 01:07:20;;;;;;;7.80;5.35;;;5.50;3.40;;;;;;4859214;29;20468;-72
2021/01/21 01:09:47;;;;;;;6.95;4.82;;;5.50;2.90;;;;;;4858864;29;20053;-73
2021/01/21 01:12:14;;;;;;;7.45;4.78;;;5.60;2.00;;;;;;4857021;29;20057;-73
2021/01/21 01:14:41;;;;;;;7.18;4.97;;;5.70;2.10;;;;;;4858808;29;20057;-73
2021/01/21 01:17:08;;;;;;;11.27;5.13;;;5.70;2.00;;;;;;4860652;29;20049;-72
2021/01/21 01:19:37;;;;;;;7.07;4.20;;;5.70;2.10;;;;;;4860297;29;20045;-73
2021/01/21 01:22:03;;;;;;;11.65;4.70;;;5.70;2.10;;;;;;4857956;29;20065;-73
2021/01/21 01:24:30;;;;;;;7.93;4.78;;;5.70;2.10;;;;;;4856960;29;20057;-73
2021/01/21 01:26:57;;;;;;;9.57;4.97;;;5.70;2.00;;;;;;4856923;29;20060;-73
2021/01/21 01:29:26;;;;;;;7.45;4.90;;;5.70;2.00;;;;;;4856031;29;20056;-73
2021/01/21 01:31:53;;;;;;;8.95;5.47;;;5.80;2.10;;;;;;4858178;29;20053;-73
2021/01/21 01:34:19;;;;;;;8.18;5.07;;;5.80;2.10;;;;;;4855509;29;20124;-73
2021/01/21 01:36:46;;;;;;;7.18;4.60;;;5.80;2.10;;;;;;4856407;29;20071;-73
2021/01/21 01:39:13;;;;;;;6.03;4.45;;;5.80;1.80;;;;;;4859277;29;20049;-71
2021/01/21 01:41:40;;;;;;;6.63;4.28;;;5.80;1.50;;;;;;4856618;29;20428;-72
2021/01/21 01:44:07;;;;;;;8.95;4.72;;;5.90;1.00;;;;;;4853742;29;20046;-70
2021/01/21 01:46:34;;;;;;;7.35;4.45;;;6.00;1.00;;;;;;4855096;29;20167;-69
2021/01/21 01:49:02;;;;;;;6.60;4.55;;;5.90;1.00;;;;;;4856986;29;20526;-70
2021/01/21 01:51:30;;;;;;;8.27;4.47;;;5.90;1.00;;;;;;4858062;29;20053;-70
2021/01/21 01:53:58;;;;;;;6.03;3.85;;;6.10;1.00;;;;;;4856249;29;20054;-69
2021/01/21 01:56:27;;;;;;;5.10;3.75;;;6.20;1.00;;;;;;4858852;29;20052;-71
2021/01/21 01:58:55;;;;;;;4.93;3.03;;;6.20;1.00;;;;;;4863629;29;20060;-74
2021/01/21 02:01:23;;;;;;;4.97;3.25;;;6.40;1.00;;;;;;4860665;29;20045;-72
2021/01/21 02:03:51;;;;;;;4.15;2.13;;;6.50;1.00;;;;;;4855337;29;20057;-71
2021/01/21 02:06:18;;;;;;;4.30;2.67;;;6.70;1.00;;;;;;4861463;29;20572;-71
2021/01/21 02:08:45;;;;;;;3.72;2.08;;;6.70;1.00;;;;;;4859450;29;20054;-71
2021/01/21 02:11:25;;;;;;;4.28;2.47;;;6.90;1.00;;;;;;4858900;29;20054;-70
2021/01/21 02:14:00;;;;;;;3.45;2.08;;;6.90;1.00;;;;;;4853612;29;20053;-70
2021/01/21 02:16:39;;;;;;;3.58;1.75;;;7.10;1.00;;;;;;4859337;29;20049;-71
2021/01/21 02:19:44;;;;;;;3.63;1.80;;;7.10;1.00;;;;;;4866007;29;20061;-73
2021/01/21 02:22:48;;;;;;;4.80;1.88;;;7.20;1.00;;;;;;4859701;29;20532;-73
2021/01/21 02:25:17;;;;;;;6.75;2.05;;;7.30;1.00;;;;;;4864062;29;20049;-72
2021/01/21 02:28:11;;;;;;;5.47;2.22;;;7.30;1.00;;;;;;4866766;29;20099;-72
2021/01/21 02:30:46;;;;;;;4.30;2.50;;;7.30;1.00;;;;;;4861750;29;20049;-72
2021/01/21 02:33:24;;;;;;;5.30;2.50;;;7.20;1.00;;;;;;4857081;29;20549;-72
2021/01/21 02:35:53;;;;;;;4.53;2.47;;;7.10;1.00;;;;;;4859489;29;20059;-71
2021/01/21 02:38:22;;;;;;;6.10;2.50;;;7.10;1.00;;;;;;4859284;29;20064;-71
2021/01/21 02:40:49;;;;;;;4.88;2.72;;;7.00;1.00;;;;;;4858122;29;20050;-72
2021/01/21 02:43:16;;;;;;;9.88;2.85;;;6.90;1.00;;;;;;4855821;29;20057;-73
2021/01/21 02:45:43;;;;;;;4.22;2.65;;;6.90;1.00;;;;;;4856131;29;20049;-71
2021/01/21 02:48:10;;;;;;;4.57;2.90;;;6.90;1.00;;;;;;4857121;29;20053;-71
2021/01/21 02:50:39;;;;;;;5.20;2.28;;;7.00;1.00;;;;;;4859045;29;20049;-71
2021/01/21 02:53:09;;;;;;;4.25;2.20;;;6.90;1.00;;;;;;4852788;29;20049;-74
2021/01/21 02:55:40;;;;;;;3.97;2.15;;;6.90;1.00;;;;;;4857775;29;20053;-70
2021/01/21 02:58:14;;;;;;;3.15;1.85;;;6.90;1.00;;;;;;4861646;29;20053;-70
2021/01/21 03:00:44;;;;;;;4.35;1.92;;;7.00;1.00;;;;;;4858378;29;20056;-71
2021/01/21 03:03:12;;;;;;;3.80;1.80;;;7.00;1.00;;;;;;4851279;29;20061;-71
2021/01/21 03:05:41;;;;;;;2.70;1.35;;;7.10;1.00;;;;;;4854802;29;20050;-71
2021/01/21 03:08:09;;;;;;;2.03;1.23;;;7.30;1.00;;;;;;4859258;29;20049;-71
2021/01/21 03:10:37;;;;;;;2.85;1.73;;;7.40;1.00;;;;;;4860644;29;20438;-72
2021/01/21 03:13:04;;;;;;;2.20;1.17;;;7.40;1.00;;;;;;4859388;29;20065;-72
2021/01/21 03:15:30;;;;;;;2.00;1.10;;;7.50;1.00;;;;;;4860215;29;20053;-71
2021/01/21 03:17:57;;;;;;;2.10;1.38;;;7.60;1.00;;;;;;4861223;29;20049;-71
2021/01/21 03:20:24;;;;;;;2.70;1.13;;;7.70;1.00;;;;;;4862701;29;20136;-73
2021/01/21 03:22:51;;;;;;;3.10;1.08;;;7.70;1.00;;;;;;4858516;29;20060;-71
2021/01/21 03:25:19;;;;;;;2.67;1.17;;;7.70;1.00;;;;;;4860635;29;20050;-74
2021/01/21 03:27:45;;;;;;;3.25;1.35;;;7.60;1.00;;;;;;4860073;29;20057;-71
2021/01/21 03:30:13;;;;;;;2.25;1.13;;;7.60;1.00;;;;;;4863170;29;20053;-71
2021/01/21 03:32:40;;;;;;;1.73;1.13;;;7.70;1.00;;;;;;4858495;29;20132;-70
2021/01/21 03:35:08;;;;;;;2.08;0.90;;;7.80;1.00;;;;;;4856535;29;20493;-70
2021/01/21 03:37:35;;;;;;;2.15;1.02;;;7.80;1.00;;;;;;4863411;29;20068;-71
2021/01/21 03:40:02;;;;;;;1.50;1.00;;;8.00;1.00;;;;;;4862549;29;20050;-72
2021/01/21 03:42:29;;;;;;;3.22;1.10;;;8.20;1.00;;;;;;4857886;29;20053;-70
2021/01/21 03:44:56;;;;;;;2.22;0.80;;;8.30;1.00;;;;;;4857998;29;20064;-70
2021/01/21 03:47:24;;;;;;;1.40;0.85;;;8.20;1.00;;;;;;4864074;29;20833;-71
2021/01/21 03:49:50;;;;;;;3.97;1.20;;;8.40;1.00;;;;;;4862068;29;20088;-71
2021/01/21 03:52:17;;;;;;;2.78;0.88;;;8.50;1.00;;;;;;4859736;29;20057;-71
2021/01/21 03:54:44;;;;;;;2.92;0.93;;;8.70;1.00;;;;;;4858808;29;20076;-71
2021/01/21 03:57:11;;;;;;;1.88;1.00;;;8.70;1.00;;;;;;4858785;29;20064;-71
2021/01/21 03:59:38;;;;;;;2.63;1.00;;;8.70;1.00;;;;;;4861036;29;20057;-72
2021/01/21 04:02:05;;;;;;;2.22;0.85;;;9.00;1.00;;;;;;4858040;29;20553;-70
2021/01/21 04:04:32;;;;;;;1.80;0.90;;;9.10;1.00;;;;;;4861012;29;20397;-71
2021/01/21 04:07:00;;;;;;;1.80;1.20;;;9.00;1.00;;;;;;4861164;29;20057;-71
2021/01/21 04:09:26;;;;;;;2.72;0.88;;;9.00;1.00;;;;;;4861962;29;20055;-71
2021/01/21 04:11:54;;;;;;;2.13;1.10;;;9.10;1.00;;;;;;4859504;29;20057;-71
2021/01/21 04:14:21;;;;;;;3.65;1.30;;;8.90;1.00;;;;;;4858760;29;20046;-71
2021/01/21 04:16:48;;;;;;;1.98;1.13;;;8.80;1.00;;;;;;4860745;29;20056;-71
2021/01/21 04:19:15;;;;;;;3.35;1.20;;;8.90;1.00;;;;;;4857547;29;20513;-71
2021/01/21 04:21:42;;;;;;;2.10;1.20;;;8.90;1.00;;;;;;4858518;29;20405;-72
2021/01/21 04:24:09;;;;;;;3.05;1.15;;;8.70;1.00;;;;;;4855466;29;20097;-72
2021/01/21 04:26:37;;;;;;;3.40;1.20;;;8.80;1.00;;;;;;4861213;29;20086;-72
2021/01/21 04:29:03;;;;;;;3.97;0.90;;;8.80;1.00;;;;;;4863828;29;20057;-72
2021/01/21 04:31:30;;;;;;;2.28;1.05;;;8.60;1.00;;;;;;4862930;29;20049;-72
2021/01/21 04:33:58;;;;;;;8.68;2.42;;;8.60;1.00;;;;;;4857253;29;20057;-72
2021/01/21 04:36:26;;;;;;;1.65;0.90;;;8.60;1.00;;;;;;4858708;29;20065;-72
2021/01/21 04:38:52;;;;;;;4.65;1.15;;;8.70;1.00;;;;;;4859710;29;20053;-71
2021/01/21 04:41:20;;;;;;;5.28;1.20;;;8.60;1.00;;;;;;4862861;29;20053;-73
2021/01/21 04:43:46;;;;;;;3.80;1.15;;;8.50;1.00;;;;;;4856468;29;20061;-73
2021/01/21 04:46:13;;;;;;;2.17;0.77;;;8.50;1.00;;;;;;4857356;29;20076;-74
2021/01/21 04:48:40;;;;;;;4.85;1.00;;;8.60;1.00;;;;;;4859638;29;20517;-73
2021/01/21 04:51:09;;;;;;;1.83;0.98;;;8.70;1.00;;;;;;4860434;29;20057;-72
2021/01/21 04:53:43;;;;;;;3.35;1.13;;;8.70;1.00;;;;;;4856455;29;20083;-73
2021/01/21 04:56:14;;;;;;;8.82;1.42;;;8.60;1.00;;;;;;4858187;29;20045;-73
2021/01/21 04:58:47;;;;;;;1.83;0.90;;;8.70;1.00;;;;;;4859675;29;20053;-72
2021/01/21 05:01:14;;;;;;;3.08;0.85;;;8.70;1.00;;;;;;4860213;29;20045;-72
2021/01/21 05:03:41;;;;;;;4.07;2.10;;;8.80;1.00;;;;;;4857179;29;20053;-74
2021/01/21 05:06:10;;;;;;;5.43;1.20;;;8.60;1.00;;;;;;4857024;29;20063;-73
2021/01/21 05:08:37;;;;;;;2.67;0.90;;;8.40;1.00;;;;;;4857103;29;20053;-73
2021/01/21 05:11:04;;;;;;;4.18;1.17;;;8.70;1.00;;;;;;4859169;29;20063;-73
2021/01/21 05:13:31;;;;;;;2.95;0.80;;;8.50;1.00;;;;;;4855956;29;20057;-73
2021/01/21 05:15:58;;;;;;;2.47;0.80;;;8.80;1.00;;;;;;4852767;29;20383;-72
2021/01/21 05:18:30;;;;;;;2.95;1.50;;;8.60;1.00;;;;;;4859181;29;20060;-73
2021/01/21 05:20:57;;;;;;;8.48;1.20;;;8.50;1.00;;;;;;4857163;29;20056;-73
2021/01/21 05:23:25;;;;;;;4.05;1.33;;;8.90;1.00;;;;;;4854732;29;20152;-71
2021/01/21 05:25:53;;;;;;;4.38;0.93;;;8.60;1.00;;;;;;4856270;29;20059;-72
2021/01/21 05:28:24;;;;;;;2.55;1.30;;;8.60;1.00;;;;;;4857823;29;20060;-75
2021/01/21 05:30:51;;;;;;;1.02;0.70;;;8.60;1.00;;;;;;4857089;29;20053;-72
2021/01/21 05:33:21;;;;;;;2.83;0.80;;;9.30;1.00;;;;;;4852993;29;20068;-73
2021/01/21 05:35:51;;;;;;;1.33;0.70;;;9.40;1.00;;;;;;4856007;29;20057;-73
2021/01/21 05:38:18;;;;;;;2.08;0.70;;;9.40;1.00;;;;;;4857237;29;20064;-74
2021/01/21 05:40:46;;;;;;;4.25;0.80;;;9.50;1.00;;;;;;4860507;29;20061;-72
2021/01/21 05:43:14;;;;;;;3.47;1.13;;;9.50;1.00;;;;;;4852621;29;20061;-75
2021/01/21 05:45:44;;;;;;;2.78;0.90;;;9.40;1.00;;;;;;4855781;29;20061;-73
2021/01/21 05:48:15;;;;;;;1.27;0.73;;;9.50;1.00;;;;;;4855768;29;20061;-71
2021/01/21 05:50:42;;;;;;;1.60;0.73;;;9.60;1.00;;;;;;4855391;29;20326;-73
2021/01/21 05:53:10;;;;;;;1.63;0.60;;;9.70;1.00;;;;;;4850091;29;20570;-72
2021/01/21 05:55:38;;;;;;;1.15;0.60;;;10.10;1.00;;;;;;4855988;29;20049;-71
2021/01/21 05:58:06;;;;;;;3.45;0.70;;;10.00;1.00;;;;;;4857068;29;20615;-73
2021/01/21 06:00:34;;;;;;;1.05;0.57;;;9.90;1.00;;;;;;4858088;29;20132;-72
2021/01/21 06:03:01;;;;;;;2.10;0.70;;;10.30;1.00;;;;;;4851068;29;20050;-73
2021/01/21 06:05:28;;;;;;;4.32;0.70;;;10.20;1.00;;;;;;4853565;29;20060;-71
2021/01/21 06:07:55;;;;;;;2.65;0.85;;;10.20;1.00;;;;;;4859782;29;20140;-72
2021/01/21 06:10:22;;;;;;;0.93;0.60;;;10.40;1.00;;;;;;4856880;29;20053;-73
2021/01/21 06:12:50;;;;;;;1.63;0.90;;;10.50;1.00;;;;;;4853433;29;20053;-73
2021/01/21 06:15:19;;;;;;;1.50;0.80;;;10.30;1.00;;;;;;4852494;29;20069;-73
2021/01/21 06:17:47;;;;;;;2.03;0.82;;;10.20;1.00;;;;;;4855672;29;20540;-71
2021/01/21 06:20:16;;;;;;;8.07;1.02;;;10.20;1.00;;;;;;4858764;29;20122;-73
2021/01/21 06:22:45;;;;;;;1.60;0.70;;;10.20;1.00;;;;;;4855188;29;20550;-73
2021/01/21 06:25:13;;;;;;;1.02;0.80;;;10.10;1.00;;;;;;4850833;29;20406;-72
2021/01/21 06:27:43;;;;;;;2.45;0.60;;;10.30;1.00;;;;;;4857116;29;20420;-73
2021/01/21 06:30:14;;;;;;;2.08;0.90;;;10.30;1.00;;;;;;4858244;29;20132;-72
2021/01/21 06:32:49;;;;;;;12.68;2.00;;;10.30;1.00;;;;;;4853833;29;20524;-73
2021/01/21 06:35:20;;;;;;;4.68;1.10;;;10.10;1.00;;;;;;4853587;29;20060;-73
2021/01/21 06:37:52;;;;;;;3.28;0.80;;;10.00;1.00;;;;;;4859869;29;20064;-71
2021/01/21 06:40:20;;;;;;;3.15;0.90;;;9.90;1.00;;;;;;4855861;29;20150;-74
2021/01/21 06:42:58;;;;;;;0.90;0.63;;;9.80;1.00;;;;;;4854943;29;20425;-72
2021/01/21 06:45:25;;;;;;;3.53;1.13;;;9.90;1.00;;;;;;4853204;29;20053;-73
2021/01/21 06:47:54;;;;;;;2.53;0.88;;;9.90;1.00;;;;;;4855652;29;20697;-72
2021/01/21 06:50:26;;;;;;;2.35;0.93;;;9.80;1.00;;;;;;4856324;29;20056;-73
2021/01/21 06:52:55;;;;;;;1.10;0.70;;;9.70;1.00;;;;;;4855261;29;20509;-71
2021/01/21 06:55:23;;;;;;;6.30;1.13;;;9.80;1.00;;;;;;4859040;29;20064;-73
2021/01/21 06:57:49;;;;;;;8.25;1.10;;;9.70;1.00;;;;;;4859017;29;20053;-72
2021/01/21 07:00:18;;;;;;;3.15;0.90;;;9.70;1.00;;;;;;4856968;29;20045;-71
2021/01/21 07:02:49;;;;;;;2.97;1.10;;;9.80;1.00;;;;;;4854966;29;20110;-73
2021/01/21 07:05:19;;;;;;;3.88;1.30;;;9.70;1.00;;;;;;4855581;29;20128;-74
2021/01/21 07:08:13;;;;;;;3.58;0.80;;;9.80;1.00;;;;;;4857902;29;20096;-72
2021/01/21 07:10:41;;;;;;;2.25;0.95;;;9.70;1.00;;;;;;4830470;29;20073;-73
2021/01/21 07:13:11;;;;;;;1.92;0.82;;;9.60;1.00;;;;;;4850977;29;20156;-73
2021/01/21 07:15:44;;;;;;;8.00;1.05;;;9.60;1.00;;;;;;4859341;29;20049;-73
2021/01/21 07:18:18;;;;;;;3.83;1.00;;;9.60;1.00;;;;;;4855195;29;20075;-74
2021/01/21 07:21:16;;;;;;;3.38;1.40;;;9.70;1.00;;;;;;4860385;29;20053;-73
2021/01/21 07:23:45;;;;;;;2.53;0.90;;;9.70;1.00;;;;;;4855531;29;20055;-73
2021/01/21 07:26:19;;;;;;;8.98;1.10;;;9.70;1.00;;;;;;4856241;29;20073;-72
2021/01/21 07:29:06;;;;;;;3.97;1.15;;;9.70;1.00;;;;;;4857809;29;20045;-73
2021/01/21 07:32:04;;;;;;;3.47;1.15;;;9.70;1.00;;;;;;4857871;29;20061;-72
2021/01/21 07:34:48;;;;;;;3.28;1.05;;;9.80;1.00;;;;;;4854990;29;20074;-73
2021/01/21 07:37:19;;;;;;;3.05;0.80;;;9.90;1.00;;;;;;4860650;29;20140;-73
2021/01/21 07:39:54;;;;;;;2.67;0.77;;;9.90;1.00;;;;;;4857520;29;20584;-73
2021/01/21 07:42:23;;;;;;;1.73;0.82;;;9.80;1.00;;;;;;4857929;29;20067;-72
2021/01/21 07:44:55;;;;;;;1.88;0.80;;;9.80;1.00;;;;;;4851759;29;20064;-72
2021/01/21 07:47:27;;;;;;;1.50;0.80;;;9.80;1.00;;;;;;4854930;29;20154;-72
2021/01/21 07:50:26;;;;;;;2.83;0.50;;;9.90;1.00;;;;;;4855354;29;20134;-73
2021/01/21 07:52:55;;;;;;;1.55;0.50;;;9.90;1.00;;;;;;4853695;29;20052;-70
2021/01/21 07:55:25;;;;;;;2.42;0.80;;;9.80;1.00;;;;;;4855701;29;20986;-72
2021/01/21 07:57:52;;;;;;;0.95;0.70;;;9.80;1.00;;;;;;4861528;29;20084;-72
2021/01/21 08:00:20;;;;;;;2.88;0.70;;;9.90;1.00;;;;;;4861025;29;20049;-74
2021/01/21 08:02:49;;;;;;;3.20;0.73;;;10.00;1.00;;;;;;4861898;29;20065;-73
2021/01/21 08:05:17;;;;;;;2.90;0.60;;;10.00;1.00;;;;;;4862087;29;20049;-74
2021/01/21 08:07:46;;;;;;;3.67;0.50;;;10.20;1.00;;;;;;4858371;29;20057;-72
2021/01/21 08:10:16;;;;;;;1.08;0.63;;;10.20;1.00;;;;;;4861322;29;20416;-73
2021/01/21 08:12:50;;;;;;;4.88;0.57;;;10.30;1.00;;;;;;4859666;29;20055;-72
2021/01/21 08:15:18;;;;;;;5.18;2.67;;;10.40;1.00;;;;;;4860203;29;20045;-74
2021/01/21 08:17:46;;;;;;;1.67;0.60;;;10.40;1.00;;;;;;4861746;29;20059;-72
2021/01/21 08:20:13;;;;;;;0.95;0.50;;;10.50;1.00;;;;;;4859254;29;20052;-73
2021/01/21 08:22:58;;;;;;;4.15;0.90;;;10.60;1.00;;;;;;4860056;29;20076;-73
2021/01/21 08:25:28;;;;;;;2.10;0.52;;;10.70;1.00;;;;;;4859589;29;20492;-74
2021/01/21 08:27:55;;;;;;;8.10;0.70;;;10.80;1.00;;;;;;4860609;29;20593;-75
2021/01/21 08:30:24;;;;;;;1.42;0.60;;;10.80;1.00;;;;;;4862319;29;20052;-75
2021/01/21 08:32:56;;;;;;;0.75;0.60;;;10.90;1.00;;;;;;4859671;29;20057;-74
2021/01/21 08:35:26;;;;;;;2.28;0.65;;;10.80;1.00;;;;;;4857301;29;20045;-71
2021/01/21 08:37:55;;;;;;;1.88;0.43;;;11.00;1.00;;;;;;4857470;29;20062;-73
2021/01/21 08:40:23;;;;;;;1.05;0.60;;;11.40;1.00;;;;;;4861388;29;20045;-72
2021/01/21 08:42:53;;;;;;;2.20;0.60;;;11.30;1.00;;;;;;4856974;29;20053;-71
2021/01/21 08:45:27;;;;;;;2.25;0.70;;;11.60;1.00;;;;;;4858888;29;20140;-72
2021/01/21 08:47:54;;;;;;;0.85;0.50;;;11.50;1.00;;;;;;4861527;29;20436;-72
2021/01/21 08:50:22;;;;;;;3.08;0.60;;;11.30;1.00;;;;;;4858846;29;20102;-73
2021/01/21 08:52:59;;;;;;;5.82;0.80;;;11.10;1.00;;;;;;4857323;29;20481;-71
2021/01/21 08:55:43;;;;;;;1.88;0.60;;;11.20;1.00;;;;;;4860486;29;20068;-73
2021/01/21 08:58:13;;;;;;;1.67;0.70;;;11.40;1.00;;;;;;4856886;29;20059;-73
2021/01/21 09:01:00;;;;;;;2.13;0.70;;;11.40;1.00;;;;;;4858318;29;20055;-71
2021/01/21 09:03:36;;;;;;;2.17;0.85;;;11.30;1.00;;;;;;4853611;29;20109;-72
2021/01/21 09:06:04;;;;;;;2.30;0.90;;;11.30;1.00;;;;;;4857951;29;20109;-72
2021/01/21 09:08:33;;;;;;;1.02;0.70;;;11.30;1.00;;;;;;4856090;29;20093;-72
2021/01/21 09:11:00;;;;;;;3.30;0.70;;;11.30;1.00;;;;;;4863145;29;20049;-72
2021/01/21 09:13:28;;;;;;;16.88;0.90;;;11.30;1.00;;;;;;4860007;29;20077;-72
2021/01/21 09:15:57;;;;;;;2.83;1.60;;;11.30;1.00;;;;;;4857626;29;20080;-72
2021/01/21 09:18:27;;;;;;;3.22;0.82;;;11.40;1.00;;;;;;4861312;29;20054;-73
2021/01/21 09:21:13;;;;;;;2.35;0.70;;;11.40;1.00;;;;;;4862347;29;20049;-72
2021/01/21 09:23:41;;;;;;;1.48;0.70;;;11.50;1.00;;;;;;4857746;29;20045;-75
2021/01/21 09:26:12;;;;;;;1.38;0.70;;;11.40;1.00;;;;;;4860130;29;20065;-75
2021/01/21 09:28:57;;;;;;;1.65;0.80;;;11.30;1.00;;;;;;4859893;29;20065;-74
2021/01/21 09:31:27;;;;;;;1.55;0.60;;;11.10;1.00;;;;;;4855432;29;20727;-72
2021/01/21 09:33:54;;;;;;;2.60;0.80;;;11.00;1.00;;;;;;4856944;29;20107;-72
2021/01/21 09:36:26;;;;;;;2.25;0.70;;;10.90;1.00;;;;;;4859644;29;20092;-73
2021/01/21 09:38:54;;;;;;;3.60;0.85;;;10.90;1.00;;;;;;4863333;29;20060;-74
2021/01/21 09:41:25;;;;;;;0.95;0.57;;;11.10;1.00;;;;;;4857444;29;20053;-73
2021/01/21 09:43:57;;;;;;;2.40;0.60;;;11.20;1.00;;;;;;4856223;29;20050;-71
2021/01/21 09:46:30;;;;;;;3.65;0.90;;;11.30;1.00;;;;;;4858172;29;20086;-73
2021/01/21 09:48:58;;;;;;;1.08;0.60;;;11.40;1.00;;;;;;4860335;29;20477;-74
2021/01/21 09:51:25;;;;;;;1.55;0.65;;;11.50;1.00;;;;;;4861551;29;20525;-72
2021/01/21 09:53:55;;;;;;;4.88;0.63;;;11.60;1.00;;;;;;4853139;29;20834;-73
2021/01/21 09:56:22;;;;;;;3.35;0.65;;;11.70;1.00;;;;;;4860880;29;20677;-72
2021/01/21 09:58:49;;;;;;;2.95;1.15;;;11.80;1.00;;;;;;4860668;29;20071;-73
2021/01/21 10:01:16;;;;;;;1.23;0.60;;;11.90;1.00;;;;;;4860242;29;20500;-73
2021/01/21 10:03:49;;;;;;;1.95;0.80;;;12.00;1.00;;;;;;4855345;29;20496;-74
2021/01/21 10:06:15;;;;;;;1.25;0.80;;;12.10;1.00;;;;;;4859800;29;20055;-72
2021/01/21 10:08:42;;;;;;;2.00;0.70;;;12.10;1.00;;;;;;4859620;29;20161;-74
2021/01/21 10:11:09;;;;;;;1.90;0.52;;;12.20;1.00;;;;;;4860694;29;20057;-71
2021/01/21 10:13:37;;;;;;;1.33;0.70;;;12.30;1.00;;;;;;4858626;29;20049;-72
2021/01/21 10:16:04;;;;;;;0.88;0.47;;;12.40;1.00;;;;;;4858185;29;20050;-72
2021/01/21 10:18:32;;;;;;;1.20;0.68;;;12.40;1.00;;;;;;4854524;29;20057;-72
2021/01/21 10:21:00;;;;;;;2.88;0.68;;;12.50;1.00;;;;;;4859706;29;20102;-73
2021/01/21 10:23:27;;;;;;;2.75;0.73;;;12.60;1.00;;;;;;4853337;29;20121;-73
2021/01/21 10:25:54;;;;;;;1.30;0.70;;;12.80;1.00;;;;;;4855631;29;20084;-74
2021/01/21 10:28:21;;;;;;;2.00;0.80;;;12.90;1.00;;;;;;4857983;29;20053;-73
2021/01/21 10:30:50;;;;;;;1.73;0.75;;;13.10;1.00;;;;;;4858330;29;20045;-72
2021/01/21 10:33:17;;;;;;;1.40;0.80;;;13.10;1.00;;;;;;4854932;29;20067;-73
2021/01/21 10:35:45;;;;;;;2.90;1.25;;;12.90;1.00;;;;;;4860444;29;20049;-71
2021/01/21 10:38:12;;;;;;;4.05;2.55;;;12.90;1.00;;;;;;4860709;29;20505;-72
2021/01/21 10:40:39;;;;;;;1.50;0.60;;;13.00;1.00;;;;;;4858130;29;20056;-72
2021/01/21 10:43:06;;;;;;;7.57;0.93;;;13.10;1.00;;;;;;4857044;29;20059;-71
2021/01/21 10:45:33;;;;;;;2.25;0.50;;;13.10;1.00;;;;;;4855462;29;20063;-71
2021/01/21 10:48:00;;;;;;;3.05;0.60;;;13.30;1.00;;;;;;4864219;29;20045;-70
2021/01/21 10:50:27;;;;;;;1.33;0.50;;;13.10;1.00;;;;;;4858426;29;20054;-71
2021/01/21 10:52:55;;;;;;;6.47;0.90;;;13.30;1.00;;;;;;4854562;29;20530;-71
2021/01/21 10:55:22;;;;;;;2.92;0.75;;;13.10;1.00;;;;;;4856881;29;20060;-72
2021/01/21 10:57:51;;;;;;;4.22;0.80;;;12.90;1.00;;;;;;4858388;29;20056;-72
2021/01/21 11:00:18;;;;;;;2.75;0.55;;;13.00;1.00;;;;;;4861326;29;20053;-71
2021/01/21 11:02:45;;;;;;;0.93;0.40;;;12.90;1.00;;;;;;4859979;29;20056;-71
2021/01/21 11:05:13;;;;;;;0.88;0.40;;;13.10;1.00;;;;;;4855872;29;20088;-72
2021/01/21 11:07:40;;;;;;;1.63;0.60;;;13.20;1.00;;;;;;4860291;29;20053;-73
2021/01/21 11:10:08;;;;;;;1.05;0.50;;;13.10;1.00;;;;;;4864317;29;20060;-74
2021/01/21 11:12:47;;;;;;;2.40;0.60;;;13.20;1.00;;;;;;4853213;29;20057;-74
2021/01/21 11:15:15;;;;;;;2.55;0.50;;;13.10;1.00;;;;;;4858610;29;20142;-73
2021/01/21 11:17:42;;;;;;;1.80;0.63;;;12.90;1.00;;;;;;4861232;29;20082;-74
2021/01/21 11:20:10;;;;;;;0.60;0.43;;;12.80;1.00;;;;;;4857225;29;20054;-70
2021/01/21 11:22:37;;;;;;;2.40;0.68;;;13.30;1.00;;;;;;4857372;29;20132;-69
2021/01/21 11:25:07;;;;;;;1.13;0.90;;;13.30;1.00;;;;;;4854841;29;20052;-69
2021/01/21 11:27:55;;;;;;;7.53;4.00;;;13.40;1.00;;;;;;4860509;29;20057;-70
2021/01/21 11:30:22;;;;;;;7.43;3.40;;;13.40;1.00;;;;;;4857151;29;20057;-68
2021/01/21 11:32:49;;;;;;;38.13;19.00;;;13.20;1.00;;;;;;4860987;29;20053;-69
2021/01/21 11:35:17;;;;;;;28.85;13.73;;;13.40;1.00;;;;;;4856290;29;20503;-69
2021/01/21 11:37:44;;;;;;;41.60;13.57;;;13.30;1.00;;;;;;4862647;29;20045;-69
2021/01/21 11:40:11;;;;;;;23.27;9.68;;;13.30;1.00;;;;;;4862291;29;20052;-69
2021/01/21 11:42:38;;;;;;;15.75;6.63;;;13.00;1.00;;;;;;4861720;29;20058;-68
2021/01/21 11:45:07;;;;;;;17.52;8.55;;;13.20;1.00;;;;;;4853474;29;20064;-69
2021/01/21 11:47:39;;;;;;;7.78;4.07;;;13.20;1.00;;;;;;4861723;29;20057;-69
2021/01/21 11:50:11;;;;;;;3.78;1.30;;;13.30;1.00;;;;;;4857567;29;20140;-69
2021/01/21 11:52:40;;;;;;;4.00;1.45;;;13.10;1.00;;;;;;4858910;29;20504;-69
2021/01/21 11:55:08;;;;;;;5.10;0.80;;;13.20;1.00;;;;;;4855144;29;20511;-69
2021/01/21 11:57:35;;;;;;;1.10;0.60;;;13.30;1.00;;;;;;4859284;29;20053;-69
2021/01/21 12:00:04;;;;;;;3.03;1.13;;;13.40;1.00;;;;;;4862774;29;20045;-70
2021/01/21 12:02:32;;;;;;;1.40;0.80;;;13.40;1.00;;;;;;4859132;29;20672;-73
2021/01/21 12:04:59;;;;;;;5.15;0.60;;;13.70;1.00;;;;;;4858036;29;20458;-75
2021/01/21 12:07:26;;;;;;;0.88;0.50;;;13.10;1.00;;;;;;4859286;29;20066;-75
2021/01/21 12:09:53;;;;;;;1.88;0.38;;;13.10;1.00;;;;;;4859649;29;20431;-74
2021/01/21 12:12:21;;;;;;;1.58;0.63;;;13.00;1.00;;;;;;4861160;29;20530;-73
2021/01/21 12:14:49;;;;;;;1.15;0.45;;;12.90;1.00;;;;;;4859315;29;20057;-72
2021/01/21 12:17:17;;;;;;;1.00;0.50;;;12.80;1.00;;;;;;4857850;29;20054;-74
2021/01/21 12:19:45;;;;;;;1.05;0.55;;;12.80;1.00;;;;;;4859743;29;20049;-70
2021/01/21 12:22:12;;;;;;;3.75;0.85;;;12.80;1.00;;;;;;4860275;29;20060;-71
2021/01/21 12:24:43;;;;;;;2.38;0.70;;;12.70;1.00;;;;;;4854791;29;20046;-71
2021/01/21 12:27:16;;;;;;;1.48;0.63;;;12.70;1.00;;;;;;4860095;29;20133;-70
2021/01/21 12:29:44;;;;;;;2.70;1.00;;;12.80;1.00;;;;;;4865960;29;20049;-70
2021/01/21 12:32:11;;;;;;;5.07;0.88;;;12.80;1.00;;;;;;4859549;29;20057;-70
2021/01/21 12:34:38;;;;;;;4.05;0.90;;;12.70;1.00;;;;;;4879189;29;20061;-71
2021/01/21 12:37:10;;;;;;;2.03;0.60;;;12.70;1.00;;;;;;4860339;29;20058;-71
2021/01/21 12:39:40;;;;;;;6.00;0.82;;;12.70;1.00;;;;;;4861984;29;20078;-73
2021/01/21 12:42:09;;;;;;;2.42;0.68;;;12.80;1.00;;;;;;4860803;29;20065;-74
2021/01/21 12:44:38;;;;;;;3.33;0.73;;;12.80;1.00;;;;;;4856892;29;20057;-73
2021/01/21 12:47:05;;;;;;;2.55;0.90;;;12.90;1.00;;;;;;4859820;29;20053;-72
2021/01/21 12:49:40;;;;;;;5.43;0.65;;;13.00;1.00;;;;;;4863783;29;20209;-74
2021/01/21 12:52:08;;;;;;;11.13;1.77;;;13.10;1.00;;;;;;4854989;29;20046;-72
2021/01/21 12:54:47;;;;;;;2.58;0.60;;;13.10;1.00;;;;;;4855469;29;20053;-71
2021/01/21 12:57:17;;;;;;;3.25;0.50;;;13.10;1.00;;;;;;4856172;29;20072;-72
2021/01/21 12:59:44;;;;;;;1.42;0.45;;;13.10;1.00;;;;;;4859601;29;20147;-72
2021/01/21 13:02:11;;;;;;;3.95;0.63;;;13.00;1.00;;;;;;4860173;29;20524;-72
2021/01/21 13:04:38;;;;;;;2.30;0.50;;;13.00;1.00;;;;;;4854306;29;20053;-72
2021/01/21 13:07:06;;;;;;;2.17;0.52;;;13.10;1.00;;;;;;4859527;29;20060;-72
2021/01/21 13:09:33;;;;;;;1.20;0.70;;;13.00;1.00;;;;;;4857524;29;20540;-72
2021/01/21 13:12:01;;;;;;;0.90;0.60;;;12.90;1.00;;;;;;4854953;29;20046;-71
2021/01/21 13:14:28;;;;;;;2.75;0.98;;;13.00;1.00;;;;;;4858591;29;20512;-73